DTTA Airport Information

Runway Information
Runway 01 Length 10499 ft width 148 ft
Elevation 13 ft Threshold 0 ft Heading 12
Runway 19 Length 10499 ft Width 148 ft
Elevation 21 ft Threshold 0 ft Heading 192
Runway 11 Length 9318 ft width 148 ft
Elevation 19 ft Threshold 0 ft Heading 113
Runway 29 Length 9318 ft Width 148 ft
Elevation 11 ft Threshold 657 ft Heading 293
Airport Frequencies
Type APP Name TUNIS APP Frequency 121.2 MHZ
Type ATIS Name TUNIS ATIS Frequency 118.675 MHZ
Type GND Name TUNIS GND Frequency 121.9 MHZ
Type TWR Name TUNIS TWR Frequency 118.1 MHZ
Airport Navaids
Type NDB Name Tunis Frequency 386 KHZ
Type NDB Name Tunis Frequency 325 KHZ
Type VOR-DME Name Tunis Frequency 116500 KHZ
Airport Weather Information & NOTAM
ADDS - METARS form results

(0616 UTC 23 May 2022)
Data provider http://aviationweather.gov/metar/data/
 
METAR text: DTTA 230600Z VRB02KT CAVOK 22/16 Q1011
Conditions at: DTTA (TUNIS/CARTHAGE , TN) observed 0600 UTC 23 May 2022
Temperature: 22.0°C (72°F)
Dewpoint: 16.0°C (61°F) [RH = 69%]
Pressure (altimeter): 29.85 inches Hg (1011.0 mb)
Winds: variable direction winds at 2 MPH (2 knots; 1.0 m/s)
Visibility: 6 or more miles (10+ km)
Ceiling: ceiling and visibility are OK
Clouds: unknown
Weather: no significant weather observed at this time

METAR text: DTTA 230530Z 00000KT CAVOK 20/17 Q1011
Conditions at: DTTA (TUNIS/CARTHAGE , TN) observed 0530 UTC 23 May 2022
Temperature: 20.0°C (68°F)
Dewpoint: 17.0°C (63°F) [RH = 83%]
Pressure (altimeter): 29.85 inches Hg (1011.0 mb)
Winds: calm
Visibility: 6 or more miles (10+ km)
Ceiling: ceiling and visibility are OK
Clouds: unknown
Weather: no significant weather observed at this time

Forecast for: DTTA (TUNIS/CARTHAGE , TN)
Text: TAF DTTA 230500Z 2306/2406 VRB03KT CAVOK
Forecast period: 0600 to 1000 UTC 23 May 2022
Forecast type: FROM: standard forecast or significant change
Winds: variable direction winds at 3 MPH (3 knots; 1.5 m/s)
Visibility: 6 or more miles (10+ km)
Ceiling: unknown
Clouds: missing
Weather: NSW  (no significant weather)
Text: BECMG 2310/2312 05010KT
Forecast period: 1000 to 1800 UTC 23 May 2022
Forecast type: BECOMING: Conditions expected to become as follows by 1200 UTC 23 May 2022
Winds: from the NE (50 degrees) at 12 MPH (10 knots; 5.1 m/s)
Visibility: 6 or more miles (10+ km)
Ceiling: unknown
Clouds: missing
Weather: NSW  (no significant weather)
Text: BECMG 2318/2320 VRB03KT
Forecast period: 1800 UTC 23 May 2022 to 0600 UTC 24 May 2022
Forecast type: BECOMING: Conditions expected to become as follows by 2000 UTC 23 May 2022
Winds: variable direction winds at 3 MPH (3 knots; 1.5 m/s)
Visibility: 6 or more miles (10+ km)
Ceiling: unknown
Clouds: missing
Weather: NSW  (no significant weather)